createdAt,value
2017-10-29T00:00:05.958Z,934.78
2017-10-29T00:01:05.957Z,934.83
2017-10-29T00:02:05.954Z,934.87
2017-10-29T00:03:05.954Z,934.82
2017-10-29T00:04:05.951Z,934.90
2017-10-29T00:05:05.952Z,934.94
2017-10-29T00:06:05.950Z,934.97
2017-10-29T00:07:05.949Z,935.09
2017-10-29T00:08:05.945Z,935.10
2017-10-29T00:09:05.944Z,935.09
2017-10-29T00:10:05.944Z,935.04
2017-10-29T00:11:05.943Z,935.00
2017-10-29T00:12:05.940Z,934.99
2017-10-29T00:13:05.939Z,934.92
2017-10-29T00:14:05.937Z,934.92
2017-10-29T00:15:05.936Z,934.83
2017-10-29T00:16:05.934Z,934.84
2017-10-29T00:17:05.939Z,934.84
2017-10-29T00:18:05.932Z,934.90
2017-10-29T00:19:05.931Z,934.88
2017-10-29T00:20:05.929Z,934.72
2017-10-29T00:21:05.978Z,934.73
2017-10-29T00:22:05.931Z,934.69
2017-10-29T00:23:05.926Z,934.65
2017-10-29T00:24:05.922Z,934.61
2017-10-29T00:25:05.922Z,934.59
2017-10-29T00:26:05.924Z,934.63
2017-10-29T00:27:05.920Z,934.58
2017-10-29T00:28:05.918Z,934.62
2017-10-29T00:29:05.917Z,934.59
2017-10-29T00:30:05.917Z,934.51
2017-10-29T00:31:05.914Z,934.55
2017-10-29T00:32:05.944Z,934.61
2017-10-29T00:33:05.911Z,934.50
2017-10-29T00:34:05.910Z,934.54
2017-10-29T00:35:05.911Z,934.53
2017-10-29T00:36:05.906Z,934.52
2017-10-29T00:37:05.905Z,934.50
2017-10-29T00:38:05.903Z,934.47
2017-10-29T00:39:05.903Z,934.51
2017-10-29T00:40:05.900Z,934.38
2017-10-29T00:41:05.898Z,934.49
2017-10-29T00:42:05.897Z,934.52
2017-10-29T00:43:05.897Z,934.51
2017-10-29T00:44:05.922Z,934.51
2017-10-29T00:45:05.892Z,934.58
2017-10-29T00:46:05.899Z,934.55
2017-10-29T00:47:05.891Z,934.51
2017-10-29T00:48:05.887Z,934.39
2017-10-29T00:49:05.887Z,934.43
2017-10-29T00:50:05.884Z,934.44
2017-10-29T00:51:05.882Z,934.27
2017-10-29T00:52:05.880Z,934.22
2017-10-29T00:53:05.879Z,934.27
2017-10-29T00:54:05.877Z,934.17
2017-10-29T00:55:05.876Z,934.18
2017-10-29T00:56:05.873Z,934.15
2017-10-29T00:57:05.872Z,934.03
2017-10-29T00:58:05.872Z,933.96
2017-10-29T00:59:05.869Z,933.93
2017-10-29T01:00:05.866Z,933.93
2017-10-29T01:01:05.864Z,933.92
2017-10-29T01:02:05.863Z,933.90
2017-10-29T01:03:05.861Z,933.85
2017-10-29T01:04:05.859Z,933.88
2017-10-29T01:05:05.859Z,933.96
2017-10-29T01:06:05.856Z,934.06
2017-10-29T01:07:05.855Z,933.96
2017-10-29T01:08:05.856Z,934.00
2017-10-29T01:09:05.852Z,933.89
2017-10-29T01:10:05.851Z,933.96
2017-10-29T01:11:05.848Z,933.99
2017-10-29T01:12:05.847Z,933.95
2017-10-29T01:13:05.845Z,934.00
2017-10-29T01:14:05.843Z,934.02
2017-10-29T01:15:05.842Z,934.03
2017-10-29T01:16:05.841Z,934.05
2017-10-29T01:17:05.838Z,934.04
2017-10-29T01:18:05.837Z,934.05
2017-10-29T01:19:05.837Z,934.07
2017-10-29T01:20:05.834Z,934.01
2017-10-29T01:21:05.832Z,933.90
2017-10-29T01:22:05.830Z,933.84
2017-10-29T01:23:05.830Z,933.84
2017-10-29T01:24:05.832Z,933.90
2017-10-29T01:25:05.826Z,933.82
2017-10-29T01:26:05.832Z,933.79
2017-10-29T01:27:05.851Z,933.73
2017-10-29T01:28:05.820Z,933.86
2017-10-29T01:29:05.819Z,933.77
2017-10-29T01:30:05.819Z,933.86
2017-10-29T01:31:05.817Z,933.64
2017-10-29T01:32:05.815Z,933.77
2017-10-29T01:33:05.813Z,933.73
2017-10-29T01:34:05.811Z,933.71
2017-10-29T01:35:05.811Z,933.71
2017-10-29T01:36:05.808Z,933.65
2017-10-29T01:37:05.809Z,933.65
2017-10-29T01:38:05.807Z,933.76
2017-10-29T01:39:05.806Z,933.55
2017-10-29T01:40:05.803Z,933.59
2017-10-29T01:41:05.801Z,933.53
2017-10-29T01:42:05.852Z,933.62
2017-10-29T01:43:05.802Z,933.54
2017-10-29T01:44:05.796Z,933.48
2017-10-29T01:45:05.795Z,933.47
2017-10-29T01:46:05.795Z,933.40
2017-10-29T01:47:05.791Z,933.36
2017-10-29T01:48:05.790Z,933.37
2017-10-29T01:49:05.788Z,933.33
2017-10-29T01:50:05.788Z,933.25
2017-10-29T01:51:05.786Z,933.17
2017-10-29T01:52:05.785Z,933.24
2017-10-29T01:53:05.783Z,933.22
2017-10-29T01:54:05.781Z,933.18
2017-10-29T01:55:05.780Z,933.17
2017-10-29T01:56:05.776Z,933.02
2017-10-29T01:57:05.777Z,933.04
2017-10-29T01:58:05.774Z,932.96
2017-10-29T01:59:05.772Z,932.84
2017-10-29T02:00:05.770Z,933.01
2017-10-29T02:01:05.769Z,932.91
2017-10-29T02:02:05.768Z,932.96
2017-10-29T02:03:05.765Z,933.01
2017-10-29T02:04:05.763Z,933.04
2017-10-29T02:05:05.816Z,933.07
2017-10-29T02:06:05.760Z,933.01
2017-10-29T02:07:05.760Z,932.99
2017-10-29T02:08:05.758Z,933.04
2017-10-29T02:09:05.758Z,933.16
2017-10-29T02:10:05.756Z,933.08
2017-10-29T02:11:05.754Z,933.23
2017-10-29T02:12:05.754Z,933.14
2017-10-29T02:13:05.751Z,933.17
2017-10-29T02:14:05.748Z,933.28
2017-10-29T02:15:05.750Z,933.36
2017-10-29T02:16:05.747Z,933.32
2017-10-29T02:17:05.745Z,933.33
2017-10-29T02:18:05.745Z,933.28
2017-10-29T02:19:05.744Z,933.20
2017-10-29T02:20:05.742Z,933.24
2017-10-29T02:21:05.740Z,933.11
2017-10-29T02:22:05.739Z,933.28
2017-10-29T02:23:05.738Z,933.30
2017-10-29T02:24:05.735Z,933.13
2017-10-29T02:25:05.734Z,933.29
2017-10-29T02:26:05.784Z,933.32
2017-10-29T02:27:05.731Z,933.10
2017-10-29T02:28:05.732Z,933.10
2017-10-29T02:29:05.729Z,933.15
2017-10-29T02:30:05.728Z,933.05
2017-10-29T02:31:05.727Z,932.88
2017-10-29T02:32:05.725Z,932.96
2017-10-29T02:33:05.724Z,932.82
2017-10-29T02:34:05.721Z,932.88
2017-10-29T02:35:05.720Z,932.72
2017-10-29T02:36:05.721Z,932.69
2017-10-29T02:37:05.717Z,932.51
2017-10-29T02:38:05.715Z,932.49
2017-10-29T02:39:05.714Z,932.54
2017-10-29T02:40:05.718Z,932.39
2017-10-29T02:41:05.711Z,932.48
2017-10-29T02:42:05.710Z,932.44
2017-10-29T02:43:05.710Z,932.54
2017-10-29T02:44:05.707Z,932.56
2017-10-29T02:45:05.706Z,932.36
2017-10-29T02:46:05.705Z,932.44
2017-10-29T02:47:05.717Z,932.29
2017-10-29T02:48:05.702Z,932.29
2017-10-29T02:49:05.728Z,932.20
2017-10-29T02:50:05.699Z,932.09
2017-10-29T02:51:05.702Z,932.12
2017-10-29T02:52:05.697Z,931.98
2017-10-29T02:53:05.695Z,931.87
2017-10-29T02:54:05.795Z,931.72
2017-10-29T02:55:05.694Z,931.78
2017-10-29T02:56:05.692Z,931.76
2017-10-29T02:57:05.693Z,931.81
2017-10-29T02:58:05.690Z,931.89
2017-10-29T02:59:05.690Z,931.77
2017-10-29T03:00:05.687Z,931.78
2017-10-29T03:01:05.687Z,931.69
2017-10-29T03:02:05.689Z,931.71
2017-10-29T03:03:05.686Z,931.52
2017-10-29T03:04:05.683Z,931.65
2017-10-29T03:05:05.684Z,931.66
2017-10-29T03:06:05.683Z,931.66
2017-10-29T03:07:05.682Z,931.67
2017-10-29T03:08:05.680Z,931.72
2017-10-29T03:09:05.678Z,931.81
2017-10-29T03:10:05.679Z,931.68
2017-10-29T03:11:05.679Z,931.71
2017-10-29T03:12:05.677Z,931.71
2017-10-29T03:13:05.675Z,931.57
2017-10-29T03:14:05.676Z,931.59
2017-10-29T03:15:05.675Z,931.67
2017-10-29T03:16:05.673Z,931.63
2017-10-29T03:17:05.672Z,931.61
2017-10-29T03:18:05.672Z,931.38
2017-10-29T03:19:05.721Z,931.51
2017-10-29T03:20:05.669Z,931.48
2017-10-29T03:21:05.670Z,931.52
2017-10-29T03:22:05.668Z,931.43
2017-10-29T03:23:05.670Z,931.53
2017-10-29T03:24:05.667Z,931.45
2017-10-29T03:25:05.665Z,931.46
2017-10-29T03:26:05.669Z,931.43
2017-10-29T03:27:05.717Z,931.42
2017-10-29T03:28:05.664Z,931.50
2017-10-29T03:29:05.664Z,931.46
2017-10-29T03:30:05.664Z,931.45
2017-10-29T03:31:05.663Z,931.67
2017-10-29T03:32:05.661Z,931.23
2017-10-29T03:33:05.661Z,931.42
2017-10-29T03:34:05.661Z,931.38
2017-10-29T03:35:05.660Z,931.19
2017-10-29T03:36:05.659Z,931.43
2017-10-29T03:37:05.658Z,931.37
2017-10-29T03:38:05.658Z,931.34
2017-10-29T03:39:05.658Z,931.30
2017-10-29T03:40:05.661Z,931.40
2017-10-29T03:41:05.664Z,931.35
2017-10-29T03:42:05.656Z,931.30
2017-10-29T03:43:05.657Z,931.20
2017-10-29T03:44:05.655Z,931.07
2017-10-29T03:45:05.655Z,931.15
2017-10-29T03:46:05.656Z,931.08
2017-10-29T03:47:05.654Z,931.21
2017-10-29T03:48:05.654Z,930.99
2017-10-29T03:49:05.656Z,930.93
2017-10-29T03:50:05.653Z,930.78
2017-10-29T03:51:05.653Z,931.15
2017-10-29T03:52:05.652Z,931.02
2017-10-29T03:53:05.652Z,931.06
2017-10-29T03:54:05.651Z,931.03
2017-10-29T03:55:05.651Z,931.17
2017-10-29T03:56:05.700Z,930.88
2017-10-29T03:57:05.650Z,931.06
2017-10-29T03:58:05.650Z,931.06
2017-10-29T03:59:05.950Z,930.87
2017-10-29T04:00:05.651Z,931.06
2017-10-29T04:01:05.649Z,931.06
2017-10-29T04:02:05.649Z,931.17
2017-10-29T04:03:05.649Z,930.96
2017-10-29T04:04:05.898Z,930.97
2017-10-29T04:05:05.647Z,930.97
2017-10-29T04:06:05.649Z,930.86
2017-10-29T04:07:05.649Z,930.83
2017-10-29T04:08:05.647Z,930.86
2017-10-29T04:09:05.697Z,930.92
2017-10-29T04:10:05.647Z,930.93
2017-10-29T04:11:05.648Z,930.83
2017-10-29T04:12:05.647Z,930.84
2017-10-29T04:13:05.647Z,930.72
2017-10-29T04:14:05.647Z,930.84
2017-10-29T04:15:05.647Z,930.80
2017-10-29T04:16:05.646Z,930.65
2017-10-29T04:17:05.645Z,930.60
2017-10-29T04:18:05.645Z,930.67
2017-10-29T04:19:05.646Z,931.08
2017-10-29T04:20:05.645Z,930.55
2017-10-29T04:21:05.652Z,930.39
2017-10-29T04:22:05.646Z,930.49
2017-10-29T04:23:05.646Z,930.56
2017-10-29T04:24:05.645Z,930.54
2017-10-29T04:25:05.696Z,930.42
2017-10-29T04:26:05.645Z,930.50
2017-10-29T04:27:05.647Z,930.32
2017-10-29T04:28:05.645Z,930.44
2017-10-29T04:29:05.655Z,930.23
2017-10-29T04:30:05.646Z,930.34
2017-10-29T04:31:05.646Z,930.31
2017-10-29T04:32:05.645Z,930.19
2017-10-29T04:33:05.647Z,930.28
2017-10-29T04:34:05.649Z,930.24
2017-10-29T04:35:05.648Z,930.38
2017-10-29T04:36:05.647Z,930.17
2017-10-29T04:37:05.647Z,930.32
2017-10-29T04:38:05.648Z,930.12
2017-10-29T04:39:05.647Z,930.12
2017-10-29T04:40:05.646Z,930.13
2017-10-29T04:41:05.648Z,930.34
2017-10-29T04:42:05.648Z,930.14
2017-10-29T04:43:05.649Z,930.12
2017-10-29T04:44:05.647Z,930.08
2017-10-29T04:45:05.647Z,930.25
2017-10-29T04:46:05.648Z,930.14
2017-10-29T04:47:05.649Z,930.00
2017-10-29T04:48:05.649Z,929.99
2017-10-29T04:49:05.698Z,930.10
2017-10-29T04:50:05.648Z,929.93
2017-10-29T04:51:05.648Z,930.03
2017-10-29T04:52:05.649Z,929.89
2017-10-29T04:53:05.648Z,929.95
2017-10-29T04:54:05.650Z,929.99
2017-10-29T04:55:05.650Z,929.90
2017-10-29T04:56:05.650Z,929.98
2017-10-29T04:57:05.649Z,929.67
2017-10-29T04:58:05.652Z,929.57
2017-10-29T04:59:05.650Z,929.77
2017-10-29T05:00:05.656Z,929.59
2017-10-29T05:01:05.650Z,929.67
2017-10-29T05:02:05.651Z,929.66
2017-10-29T05:03:05.702Z,929.50
2017-10-29T05:04:05.650Z,929.67
2017-10-29T05:05:05.651Z,929.68
2017-10-29T05:06:05.651Z,930.24
2017-10-29T05:07:05.653Z,929.50
2017-10-29T05:08:05.652Z,929.57
2017-10-29T05:09:05.652Z,929.61
2017-10-29T05:10:05.653Z,929.51
2017-10-29T05:11:05.653Z,929.39
2017-10-29T05:12:05.653Z,929.50
2017-10-29T05:13:05.653Z,929.52
2017-10-29T05:14:05.653Z,929.63
2017-10-29T05:15:05.655Z,929.48
2017-10-29T05:16:05.654Z,929.45
2017-10-29T05:17:05.654Z,929.50
2017-10-29T05:18:05.655Z,929.57
2017-10-29T05:19:05.654Z,929.44
2017-10-29T05:20:05.655Z,929.30
2017-10-29T05:21:05.655Z,929.55
2017-10-29T05:22:05.657Z,929.30
2017-10-29T05:23:05.657Z,929.07
2017-10-29T05:24:05.707Z,929.25
2017-10-29T05:25:05.658Z,929.29
2017-10-29T05:26:05.715Z,929.20
2017-10-29T05:27:05.708Z,929.24
2017-10-29T05:28:05.657Z,929.39
2017-10-29T05:29:05.658Z,929.10
2017-10-29T05:30:05.662Z,929.14
2017-10-29T05:31:05.659Z,929.15
2017-10-29T05:32:05.657Z,929.18
2017-10-29T05:33:05.661Z,929.28
2017-10-29T05:34:05.662Z,929.08
2017-10-29T05:35:05.661Z,928.95
2017-10-29T05:36:05.665Z,929.04
2017-10-29T05:37:05.659Z,929.13
2017-10-29T05:38:05.662Z,929.08
2017-10-29T05:39:05.662Z,929.00
2017-10-29T05:40:05.662Z,929.04
2017-10-29T05:41:05.663Z,929.03
2017-10-29T05:42:05.663Z,929.02
2017-10-29T05:43:05.664Z,928.75
2017-10-29T05:44:05.663Z,928.82
2017-10-29T05:45:05.663Z,928.71
2017-10-29T05:46:05.665Z,928.93
2017-10-29T05:47:05.665Z,928.89
2017-10-29T05:48:05.666Z,928.59
2017-10-29T05:49:05.672Z,928.65
2017-10-29T05:50:05.667Z,928.77
2017-10-29T05:51:05.667Z,928.74
2017-10-29T05:52:05.666Z,928.63
2017-10-29T05:53:05.667Z,928.73
2017-10-29T05:54:05.669Z,928.70
2017-10-29T05:55:05.676Z,928.71
2017-10-29T05:56:05.667Z,928.81
2017-10-29T05:57:05.669Z,928.78
2017-10-29T05:58:05.669Z,928.67
2017-10-29T05:59:05.671Z,928.77
2017-10-29T06:00:05.670Z,928.57
2017-10-29T06:01:05.670Z,928.64
2017-10-29T06:02:05.673Z,928.72
2017-10-29T06:03:05.671Z,928.73
2017-10-29T06:04:05.673Z,928.72
2017-10-29T06:05:05.672Z,928.79
2017-10-29T06:06:05.671Z,928.80
2017-10-29T06:07:05.673Z,928.89
2017-10-29T06:08:05.673Z,928.95
2017-10-29T06:09:05.673Z,928.98
2017-10-29T06:10:05.674Z,928.95
2017-10-29T06:11:05.676Z,928.97
2017-10-29T06:12:05.675Z,928.99
2017-10-29T06:13:05.675Z,928.89
2017-10-29T06:14:05.676Z,928.92
2017-10-29T06:15:05.676Z,929.07
2017-10-29T06:16:05.675Z,928.93
2017-10-29T06:17:05.677Z,928.84
2017-10-29T06:18:05.677Z,928.94
2017-10-29T06:19:05.678Z,928.88
2017-10-29T06:20:05.679Z,929.08
2017-10-29T06:21:05.678Z,928.88
2017-10-29T06:22:05.679Z,928.88
2017-10-29T06:23:05.680Z,928.81
2017-10-29T06:24:05.679Z,928.95
2017-10-29T06:25:05.680Z,929.08
2017-10-29T06:26:05.680Z,928.97
2017-10-29T06:27:05.757Z,929.26
2017-10-29T06:28:05.679Z,929.18
2017-10-29T06:29:05.681Z,929.32
2017-10-29T06:30:05.681Z,929.25
2017-10-29T06:31:05.682Z,928.97
2017-10-29T06:32:05.680Z,928.60
2017-10-29T06:33:05.682Z,929.10
2017-10-29T06:34:05.684Z,928.92
2017-10-29T06:35:05.688Z,928.86
2017-10-29T06:36:05.682Z,929.20
2017-10-29T06:37:05.682Z,929.55
2017-10-29T06:38:05.683Z,928.63
2017-10-29T06:39:05.684Z,928.95
2017-10-29T06:40:05.684Z,928.73
2017-10-29T06:41:05.685Z,929.07
2017-10-29T06:42:05.684Z,929.03
2017-10-29T06:43:05.692Z,929.10
2017-10-29T06:44:05.684Z,929.25
2017-10-29T06:45:05.684Z,929.38
2017-10-29T06:46:05.686Z,929.09
2017-10-29T06:47:05.686Z,929.32
2017-10-29T06:48:05.685Z,929.23
2017-10-29T06:49:05.686Z,929.32
2017-10-29T06:50:05.686Z,929.20
2017-10-29T06:51:05.691Z,929.29
2017-10-29T06:52:05.687Z,929.32
2017-10-29T06:53:05.688Z,929.20
2017-10-29T06:54:05.689Z,929.45
2017-10-29T06:55:05.690Z,929.20
2017-10-29T06:56:05.689Z,929.22
2017-10-29T06:57:05.689Z,928.97
2017-10-29T06:58:05.693Z,929.15
2017-10-29T06:59:05.690Z,929.13
2017-10-29T07:00:05.691Z,928.97
2017-10-29T07:01:05.690Z,928.78
2017-10-29T07:02:05.691Z,928.97
2017-10-29T07:03:05.691Z,929.02
2017-10-29T07:04:05.690Z,928.99
2017-10-29T07:05:05.691Z,928.75
2017-10-29T07:06:05.694Z,929.01
2017-10-29T07:07:05.693Z,928.89
2017-10-29T07:08:05.692Z,929.09
2017-10-29T07:09:05.695Z,929.02
2017-10-29T07:10:05.694Z,929.05
2017-10-29T07:11:05.695Z,928.90
2017-10-29T07:12:05.696Z,929.14
2017-10-29T07:13:05.695Z,929.11
2017-10-29T07:14:05.696Z,929.15
2017-10-29T07:15:05.698Z,929.09
2017-10-29T07:16:05.697Z,929.05
2017-10-29T07:17:05.698Z,929.11
2017-10-29T07:18:05.698Z,929.02
2017-10-29T07:19:05.700Z,929.31
2017-10-29T07:20:05.700Z,929.04
2017-10-29T07:21:05.701Z,928.93
2017-10-29T07:22:05.702Z,929.26
2017-10-29T07:23:05.702Z,929.36
2017-10-29T07:24:05.703Z,929.25
2017-10-29T07:25:05.703Z,929.31
2017-10-29T07:26:05.710Z,929.42
2017-10-29T07:27:05.706Z,929.60
2017-10-29T07:28:05.709Z,929.66
2017-10-29T07:29:05.705Z,929.53
2017-10-29T07:30:05.706Z,929.19
2017-10-29T07:31:05.706Z,929.54
2017-10-29T07:32:05.705Z,929.28
2017-10-29T07:33:05.707Z,929.73
2017-10-29T07:34:05.708Z,929.44
2017-10-29T07:35:05.710Z,929.37
2017-10-29T07:36:05.708Z,929.51
2017-10-29T07:37:05.708Z,929.55
2017-10-29T07:38:05.709Z,929.42
2017-10-29T07:39:05.708Z,929.44
2017-10-29T07:40:05.708Z,929.40
2017-10-29T07:41:05.708Z,929.59
2017-10-29T07:42:05.716Z,929.50
2017-10-29T07:43:05.712Z,929.40
2017-10-29T07:44:05.708Z,929.33
2017-10-29T07:45:05.711Z,929.47
2017-10-29T07:46:05.711Z,929.40
2017-10-29T07:47:05.712Z,929.40
2017-10-29T07:48:05.711Z,929.63
2017-10-29T07:49:05.710Z,929.62
2017-10-29T07:50:05.711Z,929.51
2017-10-29T07:51:05.712Z,929.62
2017-10-29T07:52:05.718Z,929.68
2017-10-29T07:53:05.711Z,929.38
2017-10-29T07:54:05.713Z,929.78
2017-10-29T07:55:05.712Z,929.37
2017-10-29T07:56:05.715Z,929.63
2017-10-29T07:57:05.711Z,929.66
2017-10-29T07:58:05.712Z,929.50
2017-10-29T07:59:05.713Z,929.70
2017-10-29T08:00:05.712Z,929.52
2017-10-29T08:01:05.713Z,929.86
2017-10-29T08:02:05.713Z,929.80
2017-10-29T08:03:05.714Z,930.00
2017-10-29T08:04:05.713Z,929.94
2017-10-29T08:05:05.713Z,929.53
2017-10-29T08:06:05.713Z,929.60
2017-10-29T08:07:05.715Z,929.85
2017-10-29T08:08:05.763Z,929.59
2017-10-29T08:09:05.763Z,929.59
2017-10-29T08:10:05.715Z,929.59
2017-10-29T08:11:05.722Z,929.47
2017-10-29T08:12:05.715Z,929.72
2017-10-29T08:13:05.717Z,929.42
2017-10-29T08:14:05.714Z,929.71
2017-10-29T08:15:05.716Z,929.45
2017-10-29T08:16:05.714Z,929.38
2017-10-29T08:17:05.715Z,929.35
2017-10-29T08:18:05.714Z,929.42
2017-10-29T08:19:05.715Z,929.41
2017-10-29T08:20:05.714Z,929.43
2017-10-29T08:21:05.715Z,929.31
2017-10-29T08:22:05.720Z,929.29
2017-10-29T08:23:05.714Z,929.45
2017-10-29T08:24:05.714Z,929.22
2017-10-29T08:25:05.715Z,929.22
2017-10-29T08:26:05.715Z,929.28
2017-10-29T08:27:05.715Z,929.20
2017-10-29T08:28:05.716Z,929.19
2017-10-29T08:29:05.764Z,929.42
2017-10-29T08:30:05.714Z,929.37
2017-10-29T08:31:05.716Z,929.05
2017-10-29T08:32:05.715Z,929.47
2017-10-29T08:33:05.715Z,929.26
2017-10-29T08:34:05.716Z,929.23
2017-10-29T08:35:05.715Z,929.12
2017-10-29T08:36:05.715Z,929.00
2017-10-29T08:37:05.716Z,928.97
2017-10-29T08:38:05.715Z,928.71
2017-10-29T08:39:05.715Z,928.75
2017-10-29T08:40:05.714Z,929.26
2017-10-29T08:41:05.719Z,929.03
2017-10-29T08:42:05.715Z,928.83
2017-10-29T08:43:05.715Z,928.33
2017-10-29T08:44:05.718Z,929.07
2017-10-29T08:45:05.722Z,929.28
2017-10-29T08:46:05.715Z,929.17
2017-10-29T08:47:05.715Z,929.30
2017-10-29T08:48:05.715Z,929.46
2017-10-29T08:49:05.714Z,929.27
2017-10-29T08:50:05.716Z,929.43
2017-10-29T08:51:05.717Z,929.27
2017-10-29T08:52:05.714Z,929.29
2017-10-29T08:53:05.714Z,929.29
2017-10-29T08:54:05.715Z,929.43
2017-10-29T08:55:05.715Z,929.37
2017-10-29T08:56:05.714Z,929.60
2017-10-29T08:57:05.714Z,929.56
2017-10-29T08:58:05.713Z,929.28
2017-10-29T08:59:05.715Z,929.60
2017-10-29T09:00:05.714Z,929.36
2017-10-29T09:01:05.713Z,929.57
2017-10-29T09:02:05.714Z,929.64
2017-10-29T09:03:05.713Z,929.46
2017-10-29T09:04:05.774Z,929.67
2017-10-29T09:05:05.714Z,929.44
2017-10-29T09:06:05.712Z,929.55
2017-10-29T09:07:05.714Z,929.79
2017-10-29T09:08:05.713Z,929.71
2017-10-29T09:09:05.712Z,929.65
2017-10-29T09:10:05.714Z,929.31
2017-10-29T09:11:05.714Z,929.67
2017-10-29T09:12:05.712Z,929.73
2017-10-29T09:13:05.711Z,929.77
2017-10-29T09:14:05.712Z,929.74
2017-10-29T09:15:05.712Z,929.71
2017-10-29T09:16:05.711Z,929.97
2017-10-29T09:17:05.710Z,929.78
2017-10-29T09:18:05.777Z,929.88
2017-10-29T09:19:05.762Z,929.63
2017-10-29T09:20:05.710Z,929.51
2017-10-29T09:21:05.710Z,930.00
2017-10-29T09:22:05.709Z,930.05
2017-10-29T09:23:05.709Z,930.03
2017-10-29T09:24:05.709Z,929.99
2017-10-29T09:25:05.710Z,930.03
2017-10-29T09:26:05.709Z,929.86
2017-10-29T09:27:05.709Z,930.24
2017-10-29T09:28:05.708Z,930.15
2017-10-29T09:29:05.706Z,930.09
2017-10-29T09:30:05.706Z,929.91
2017-10-29T09:31:05.706Z,930.17
2017-10-29T09:32:05.705Z,930.03
2017-10-29T09:33:05.704Z,929.78
2017-10-29T09:34:05.705Z,929.88
2017-10-29T09:35:05.705Z,929.96
2017-10-29T09:36:05.702Z,929.89
2017-10-29T09:37:05.703Z,930.03
2017-10-29T09:38:05.703Z,929.83
2017-10-29T09:39:05.704Z,929.96
2017-10-29T09:40:05.702Z,930.10
2017-10-29T09:41:05.700Z,930.04
2017-10-29T09:42:05.701Z,930.08
2017-10-29T09:43:05.701Z,929.93
2017-10-29T09:44:05.699Z,930.13
2017-10-29T09:45:05.698Z,930.11
2017-10-29T09:46:05.699Z,930.16
2017-10-29T09:47:05.703Z,930.05
2017-10-29T09:48:05.697Z,929.93
2017-10-29T09:49:05.746Z,930.25
2017-10-29T09:50:05.700Z,930.10
2017-10-29T09:51:05.695Z,930.25
2017-10-29T09:52:05.694Z,930.21
2017-10-29T09:53:05.693Z,930.11
2017-10-29T09:54:05.694Z,930.09
2017-10-29T09:55:05.693Z,930.45
2017-10-29T09:56:05.692Z,930.25
2017-10-29T09:57:05.690Z,930.45
2017-10-29T09:58:05.698Z,929.89
2017-10-29T09:59:05.688Z,930.22
2017-10-29T10:00:05.691Z,930.34
2017-10-29T10:01:05.689Z,930.45
2017-10-29T10:02:05.687Z,930.23
2017-10-29T10:03:05.687Z,930.42
2017-10-29T10:04:05.686Z,930.31
2017-10-29T10:05:05.685Z,930.43
2017-10-29T10:06:05.686Z,930.37
2017-10-29T10:07:05.686Z,930.66
2017-10-29T10:08:05.682Z,930.55
2017-10-29T10:09:05.683Z,930.57
2017-10-29T10:10:05.682Z,930.51
2017-10-29T10:11:05.681Z,930.59
2017-10-29T10:12:05.679Z,930.38
2017-10-29T10:13:05.679Z,930.64
2017-10-29T10:14:05.678Z,930.50
2017-10-29T10:15:05.677Z,930.64
2017-10-29T10:16:05.678Z,930.70
2017-10-29T10:17:05.675Z,930.50
2017-10-29T10:18:05.674Z,930.66
2017-10-29T10:19:05.679Z,930.68
2017-10-29T10:20:05.672Z,930.70
2017-10-29T10:21:05.672Z,930.95
2017-10-29T10:22:05.671Z,930.53
2017-10-29T10:23:05.673Z,931.24
2017-10-29T10:24:05.669Z,930.83
2017-10-29T10:25:05.669Z,930.86
2017-10-29T10:26:05.696Z,930.87
2017-10-29T10:27:05.668Z,930.76
2017-10-29T10:28:05.666Z,931.01
2017-10-29T10:29:05.666Z,930.78
2017-10-29T10:30:05.665Z,930.66
2017-10-29T10:31:05.665Z,930.77
2017-10-29T10:32:05.663Z,930.91
2017-10-29T10:33:05.664Z,930.56
2017-10-29T10:34:05.662Z,930.78
2017-10-29T10:35:05.661Z,930.71
2017-10-29T10:36:05.660Z,930.84
2017-10-29T10:37:05.659Z,930.72
2017-10-29T10:38:05.660Z,930.89
2017-10-29T10:39:05.659Z,931.00
2017-10-29T10:40:05.657Z,930.84
2017-10-29T10:41:05.656Z,930.72
2017-10-29T10:42:05.656Z,930.71
2017-10-29T10:43:05.705Z,930.86
2017-10-29T10:44:05.653Z,930.85
2017-10-29T10:45:05.657Z,930.84
2017-10-29T10:46:05.653Z,930.97
2017-10-29T10:47:05.652Z,930.67
2017-10-29T10:48:05.650Z,930.86
2017-10-29T10:49:05.650Z,930.73
2017-10-29T10:50:05.650Z,930.83
2017-10-29T10:51:05.649Z,930.76
2017-10-29T10:52:05.647Z,930.71
2017-10-29T10:53:05.654Z,930.46
2017-10-29T10:54:05.646Z,930.81
2017-10-29T10:55:05.649Z,930.76
2017-10-29T10:56:05.645Z,930.67
2017-10-29T10:57:05.643Z,930.82
2017-10-29T10:58:05.643Z,930.61
2017-10-29T10:59:05.693Z,930.60
2017-10-29T11:00:05.645Z,930.47
2017-10-29T11:01:05.642Z,930.46
2017-10-29T11:02:05.643Z,930.46
2017-10-29T11:03:05.641Z,930.58
2017-10-29T11:04:05.641Z,930.63
2017-10-29T11:05:05.639Z,930.80
2017-10-29T11:06:05.643Z,930.53
2017-10-29T11:07:05.644Z,930.70
2017-10-29T11:08:05.640Z,930.72
2017-10-29T11:09:05.639Z,930.67
2017-10-29T11:10:05.641Z,930.91
2017-10-29T11:11:05.640Z,930.82
2017-10-29T11:12:05.641Z,930.85
2017-10-29T11:13:05.640Z,930.82
2017-10-29T11:14:05.690Z,930.79
2017-10-29T11:15:05.692Z,930.65
2017-10-29T11:16:05.641Z,930.88
2017-10-29T11:17:05.650Z,930.90
2017-10-29T11:18:05.643Z,930.91
2017-10-29T11:19:05.693Z,930.79
2017-10-29T11:20:05.644Z,930.86
2017-10-29T11:21:05.644Z,930.84
2017-10-29T11:22:05.644Z,930.80
2017-10-29T11:23:05.645Z,930.78
2017-10-29T11:24:05.646Z,930.86
2017-10-29T11:25:05.647Z,930.88
2017-10-29T11:26:05.650Z,930.90
2017-10-29T11:27:05.646Z,930.95
2017-10-29T11:28:05.647Z,930.78
2017-10-29T11:29:05.646Z,930.74
2017-10-29T11:30:05.648Z,930.64
2017-10-29T11:31:05.648Z,930.77
2017-10-29T11:32:05.648Z,930.77
2017-10-29T11:33:05.677Z,930.50
2017-10-29T11:34:05.648Z,930.95
2017-10-29T11:35:05.653Z,930.80
2017-10-29T11:36:05.654Z,930.69
2017-10-29T11:37:05.649Z,930.71
2017-10-29T11:38:05.650Z,930.96
2017-10-29T11:39:05.650Z,930.69
2017-10-29T11:40:05.650Z,930.92
2017-10-29T11:41:05.649Z,930.76
2017-10-29T11:42:05.651Z,930.60
2017-10-29T11:43:05.651Z,930.83
2017-10-29T11:44:05.649Z,930.84
2017-10-29T11:45:05.651Z,930.79
2017-10-29T11:46:05.653Z,930.78
2017-10-29T11:47:05.651Z,930.84
2017-10-29T11:48:05.650Z,930.82
2017-10-29T11:49:05.706Z,930.89
2017-10-29T11:50:05.651Z,930.73
2017-10-29T11:51:05.652Z,930.92
2017-10-29T11:52:05.650Z,930.91
2017-10-29T11:53:05.651Z,930.64
2017-10-29T11:54:05.652Z,930.84
2017-10-29T11:55:05.651Z,930.71
2017-10-29T11:56:05.652Z,930.92
2017-10-29T11:57:05.650Z,930.65
2017-10-29T11:58:05.651Z,930.87
2017-10-29T11:59:05.651Z,930.96
2017-10-29T12:00:05.649Z,930.88
2017-10-29T12:01:05.656Z,930.74
2017-10-29T12:02:05.649Z,930.81
2017-10-29T12:03:05.652Z,930.70
2017-10-29T12:04:05.648Z,930.69
2017-10-29T12:05:05.700Z,930.81
2017-10-29T12:06:05.649Z,930.74
2017-10-29T12:07:05.649Z,930.69
2017-10-29T12:08:05.648Z,930.59
2017-10-29T12:09:05.647Z,930.55
2017-10-29T12:10:05.647Z,930.67
2017-10-29T12:11:05.647Z,930.59
2017-10-29T12:12:05.646Z,930.63
2017-10-29T12:13:05.646Z,930.80
2017-10-29T12:14:05.647Z,930.62
2017-10-29T12:15:05.645Z,930.78
2017-10-29T12:16:05.694Z,930.79
2017-10-29T12:17:05.645Z,930.60
2017-10-29T12:18:05.644Z,930.55
2017-10-29T12:19:05.644Z,930.78
2017-10-29T12:20:05.642Z,930.59
2017-10-29T12:21:05.648Z,930.56
2017-10-29T12:22:05.642Z,930.61
2017-10-29T12:23:05.643Z,930.86
2017-10-29T12:24:05.642Z,930.72
2017-10-29T12:25:05.646Z,930.76
2017-10-29T12:26:05.643Z,930.60
2017-10-29T12:27:05.651Z,930.67
2017-10-29T12:28:05.641Z,930.62